sensor_id;sensor_type;location;lat;lon;timestamp;P1;durP1;ratioP1;P2;durP2;ratioP2
38123;SDS011;23934;47.998;9.832;2022-12-07T00:01:42;30.38;;;8.82;;
38123;SDS011;23934;47.998;9.832;2022-12-07T00:04:10;23.52;;;7.93;;
38123;SDS011;23934;47.998;9.832;2022-12-07T00:06:40;19.23;;;6.15;;
38123;SDS011;23934;47.998;9.832;2022-12-07T00:09:08;21.23;;;7.07;;
38123;SDS011;23934;47.998;9.832;2022-12-07T00:11:35;23.58;;;7.35;;
38123;SDS011;23934;47.998;9.832;2022-12-07T00:14:02;21.05;;;8.20;;
38123;SDS011;23934;47.998;9.832;2022-12-07T00:16:29;25.88;;;8.45;;
38123;SDS011;23934;47.998;9.832;2022-12-07T00:18:55;22.02;;;7.78;;
38123;SDS011;23934;47.998;9.832;2022-12-07T00:21:26;17.52;;;6.63;;
38123;SDS011;23934;47.998;9.832;2022-12-07T00:23:53;18.58;;;5.72;;
38123;SDS011;23934;47.998;9.832;2022-12-07T00:26:24;18.15;;;6.97;;
38123;SDS011;23934;47.998;9.832;2022-12-07T00:28:54;21.48;;;6.45;;
38123;SDS011;23934;47.998;9.832;2022-12-07T00:31:21;22.17;;;7.25;;
38123;SDS011;23934;47.998;9.832;2022-12-07T00:33:47;18.63;;;7.50;;
38123;SDS011;23934;47.998;9.832;2022-12-07T00:36:14;26.10;;;7.80;;
38123;SDS011;23934;47.998;9.832;2022-12-07T00:38:41;22.13;;;8.68;;
38123;SDS011;23934;47.998;9.832;2022-12-07T00:41:09;20.73;;;7.05;;
38123;SDS011;23934;47.998;9.832;2022-12-07T00:43:36;24.27;;;7.63;;
38123;SDS011;23934;47.998;9.832;2022-12-07T00:46:02;24.73;;;8.45;;
38123;SDS011;23934;47.998;9.832;2022-12-07T00:48:28;34.40;;;8.63;;
38123;SDS011;23934;47.998;9.832;2022-12-07T00:50:54;22.02;;;7.25;;
38123;SDS011;23934;47.998;9.832;2022-12-07T00:53:20;31.05;;;7.43;;
38123;SDS011;23934;47.998;9.832;2022-12-07T00:55:46;20.30;;;8.00;;
38123;SDS011;23934;47.998;9.832;2022-12-07T00:58:12;20.60;;;7.80;;
38123;SDS011;23934;47.998;9.832;2022-12-07T01:00:39;18.08;;;6.35;;
38123;SDS011;23934;47.998;9.832;2022-12-07T01:03:06;20.38;;;6.97;;
38123;SDS011;23934;47.998;9.832;2022-12-07T01:05:32;18.10;;;6.68;;
38123;SDS011;23934;47.998;9.832;2022-12-07T01:07:58;18.45;;;6.43;;
38123;SDS011;23934;47.998;9.832;2022-12-07T01:10:25;27.40;;;6.10;;
38123;SDS011;23934;47.998;9.832;2022-12-07T01:12:51;17.98;;;6.95;;
38123;SDS011;23934;47.998;9.832;2022-12-07T01:15:17;19.88;;;7.20;;
38123;SDS011;23934;47.998;9.832;2022-12-07T01:17:43;22.08;;;8.05;;
38123;SDS011;23934;47.998;9.832;2022-12-07T01:20:09;22.10;;;6.43;;
38123;SDS011;23934;47.998;9.832;2022-12-07T01:22:39;18.30;;;6.50;;
38123;SDS011;23934;47.998;9.832;2022-12-07T01:25:05;18.48;;;7.35;;
38123;SDS011;23934;47.998;9.832;2022-12-07T01:27:32;22.23;;;6.72;;
38123;SDS011;23934;47.998;9.832;2022-12-07T01:29:58;17.30;;;5.97;;
38123;SDS011;23934;47.998;9.832;2022-12-07T01:32:24;14.35;;;5.45;;
38123;SDS011;23934;47.998;9.832;2022-12-07T01:34:50;17.65;;;7.10;;
38123;SDS011;23934;47.998;9.832;2022-12-07T01:37:16;18.30;;;6.85;;
38123;SDS011;23934;47.998;9.832;2022-12-07T01:39:42;18.63;;;6.90;;
38123;SDS011;23934;47.998;9.832;2022-12-07T01:42:11;18.38;;;7.43;;
38123;SDS011;23934;47.998;9.832;2022-12-07T01:47:21;18.20;;;6.30;;
38123;SDS011;23934;47.998;9.832;2022-12-07T01:49:48;17.23;;;5.30;;
38123;SDS011;23934;47.998;9.832;2022-12-07T01:52:24;15.52;;;5.78;;
38123;SDS011;23934;47.998;9.832;2022-12-07T01:54:52;16.95;;;5.55;;
38123;SDS011;23934;47.998;9.832;2022-12-07T01:57:19;15.20;;;5.43;;
38123;SDS011;23934;47.998;9.832;2022-12-07T01:59:45;8.68;;;3.67;;
38123;SDS011;23934;47.998;9.832;2022-12-07T02:02:15;10.35;;;3.85;;
38123;SDS011;23934;47.998;9.832;2022-12-07T02:04:43;6.60;;;3.60;;
38123;SDS011;23934;47.998;9.832;2022-12-07T02:07:09;5.38;;;2.20;;
38123;SDS011;23934;47.998;9.832;2022-12-07T02:09:35;5.60;;;0.98;;
38123;SDS011;23934;47.998;9.832;2022-12-07T02:12:01;1.30;;;1.13;;
38123;SDS011;23934;47.998;9.832;2022-12-07T02:14:27;0.03;;;0.03;;
38123;SDS011;23934;47.998;9.832;2022-12-07T02:16:58;0.00;;;0.00;;
38123;SDS011;23934;47.998;9.832;2022-12-07T02:25:08;0.00;;;0.00;;
38123;SDS011;23934;47.998;9.832;2022-12-07T02:30:20;1.85;;;1.38;;
38123;SDS011;23934;47.998;9.832;2022-12-07T02:35:28;0.13;;;0.13;;
38123;SDS011;23934;47.998;9.832;2022-12-07T02:38:11;0.22;;;0.22;;
38123;SDS011;23934;47.998;9.832;2022-12-07T02:40:42;1.35;;;1.27;;
38123;SDS011;23934;47.998;9.832;2022-12-07T02:43:11;0.00;;;0.00;;
38123;SDS011;23934;47.998;9.832;2022-12-07T02:45:39;0.00;;;0.00;;
38123;SDS011;23934;47.998;9.832;2022-12-07T02:48:05;0.00;;;0.00;;
38123;SDS011;23934;47.998;9.832;2022-12-07T02:50:33;0.00;;;0.00;;
38123;SDS011;23934;47.998;9.832;2022-12-07T02:52:59;0.00;;;0.00;;
38123;SDS011;23934;47.998;9.832;2022-12-07T02:55:27;0.38;;;0.38;;
38123;SDS011;23934;47.998;9.832;2022-12-07T02:58:02;0.10;;;0.10;;
38123;SDS011;23934;47.998;9.832;2022-12-07T03:00:31;0.00;;;0.00;;
38123;SDS011;23934;47.998;9.832;2022-12-07T03:03:05;0.70;;;0.70;;
38123;SDS011;23934;47.998;9.832;2022-12-07T03:08:00;0.10;;;0.10;;
38123;SDS011;23934;47.998;9.832;2022-12-07T03:15:58;0.00;;;0.00;;
38123;SDS011;23934;47.998;9.832;2022-12-07T03:18:28;0.00;;;0.00;;
38123;SDS011;23934;47.998;9.832;2022-12-07T03:20:55;0.60;;;0.52;;
38123;SDS011;23934;47.998;9.832;2022-12-07T03:23:22;2.17;;;1.45;;
38123;SDS011;23934;47.998;9.832;2022-12-07T03:25:50;0.00;;;0.00;;
38123;SDS011;23934;47.998;9.832;2022-12-07T03:28:18;0.38;;;0.38;;
38123;SDS011;23934;47.998;9.832;2022-12-07T03:33:26;0.00;;;0.00;;
38123;SDS011;23934;47.998;9.832;2022-12-07T03:36:07;0.35;;;0.35;;
38123;SDS011;23934;47.998;9.832;2022-12-07T03:38:36;0.28;;;0.22;;
38123;SDS011;23934;47.998;9.832;2022-12-07T03:41:08;0.10;;;0.10;;
38123;SDS011;23934;47.998;9.832;2022-12-07T03:43:35;0.00;;;0.00;;
38123;SDS011;23934;47.998;9.832;2022-12-07T03:48:41;1.38;;;1.27;;
38123;SDS011;23934;47.998;9.832;2022-12-07T03:51:13;0.05;;;0.05;;
38123;SDS011;23934;47.998;9.832;2022-12-07T03:53:44;0.00;;;0.00;;
38123;SDS011;23934;47.998;9.832;2022-12-07T03:56:12;0.65;;;0.22;;
38123;SDS011;23934;47.998;9.832;2022-12-07T03:58:38;0.25;;;0.25;;
38123;SDS011;23934;47.998;9.832;2022-12-07T04:01:04;0.65;;;0.17;;
38123;SDS011;23934;47.998;9.832;2022-12-07T04:03:30;0.10;;;0.10;;
38123;SDS011;23934;47.998;9.832;2022-12-07T04:05:56;3.20;;;1.75;;
38123;SDS011;23934;47.998;9.832;2022-12-07T04:08:23;0.00;;;0.00;;
38123;SDS011;23934;47.998;9.832;2022-12-07T04:10:49;0.20;;;0.20;;
38123;SDS011;23934;47.998;9.832;2022-12-07T04:13:15;0.10;;;0.10;;
38123;SDS011;23934;47.998;9.832;2022-12-07T04:15:41;2.65;;;1.13;;
38123;SDS011;23934;47.998;9.832;2022-12-07T04:18:07;0.13;;;0.13;;
38123;SDS011;23934;47.998;9.832;2022-12-07T04:20:33;1.88;;;1.00;;
38123;SDS011;23934;47.998;9.832;2022-12-07T04:22:59;0.00;;;0.00;;
38123;SDS011;23934;47.998;9.832;2022-12-07T04:25:25;0.00;;;0.00;;
38123;SDS011;23934;47.998;9.832;2022-12-07T04:27:51;0.35;;;0.35;;
38123;SDS011;23934;47.998;9.832;2022-12-07T04:30:18;0.08;;;0.08;;
38123;SDS011;23934;47.998;9.832;2022-12-07T04:32:44;0.00;;;0.00;;
38123;SDS011;23934;47.998;9.832;2022-12-07T04:35:10;0.03;;;0.03;;
38123;SDS011;23934;47.998;9.832;2022-12-07T04:37:36;1.02;;;0.93;;
38123;SDS011;23934;47.998;9.832;2022-12-07T04:40:05;0.00;;;0.00;;
38123;SDS011;23934;47.998;9.832;2022-12-07T04:42:32;0.55;;;0.45;;
38123;SDS011;23934;47.998;9.832;2022-12-07T04:44:58;0.00;;;0.00;;
38123;SDS011;23934;47.998;9.832;2022-12-07T04:47:24;0.00;;;0.00;;
38123;SDS011;23934;47.998;9.832;2022-12-07T04:49:50;0.00;;;0.00;;
38123;SDS011;23934;47.998;9.832;2022-12-07T04:52:15;0.00;;;0.00;;
38123;SDS011;23934;47.998;9.832;2022-12-07T04:54:41;0.00;;;0.00;;
38123;SDS011;23934;47.998;9.832;2022-12-07T04:57:07;0.00;;;0.00;;
38123;SDS011;23934;47.998;9.832;2022-12-07T04:59:33;0.00;;;0.00;;
38123;SDS011;23934;47.998;9.832;2022-12-07T05:01:59;0.00;;;0.00;;
38123;SDS011;23934;47.998;9.832;2022-12-07T05:04:25;0.00;;;0.00;;
38123;SDS011;23934;47.998;9.832;2022-12-07T05:06:51;0.00;;;0.00;;
38123;SDS011;23934;47.998;9.832;2022-12-07T05:09:17;1.05;;;1.02;;
38123;SDS011;23934;47.998;9.832;2022-12-07T05:11:43;1.30;;;0.65;;
38123;SDS011;23934;47.998;9.832;2022-12-07T05:14:14;0.00;;;0.00;;
38123;SDS011;23934;47.998;9.832;2022-12-07T05:16:40;6.25;;;1.42;;
38123;SDS011;23934;47.998;9.832;2022-12-07T05:19:07;0.00;;;0.00;;
38123;SDS011;23934;47.998;9.832;2022-12-07T05:21:33;0.00;;;0.00;;
38123;SDS011;23934;47.998;9.832;2022-12-07T05:24:00;11.30;;;3.53;;
38123;SDS011;23934;47.998;9.832;2022-12-07T05:26:26;0.88;;;0.80;;
38123;SDS011;23934;47.998;9.832;2022-12-07T05:28:52;0.00;;;0.00;;
38123;SDS011;23934;47.998;9.832;2022-12-07T05:31:18;0.25;;;0.25;;
38123;SDS011;23934;47.998;9.832;2022-12-07T05:33:45;0.00;;;0.00;;
38123;SDS011;23934;47.998;9.832;2022-12-07T05:36:10;0.95;;;0.57;;
38123;SDS011;23934;47.998;9.832;2022-12-07T05:38:36;0.00;;;0.00;;
38123;SDS011;23934;47.998;9.832;2022-12-07T05:41:03;0.10;;;0.10;;
38123;SDS011;23934;47.998;9.832;2022-12-07T05:43:29;0.05;;;0.05;;
38123;SDS011;23934;47.998;9.832;2022-12-07T05:45:55;0.20;;;0.20;;
38123;SDS011;23934;47.998;9.832;2022-12-07T05:48:22;0.00;;;0.00;;
38123;SDS011;23934;47.998;9.832;2022-12-07T05:50:48;0.10;;;0.10;;
38123;SDS011;23934;47.998;9.832;2022-12-07T05:53:14;0.00;;;0.00;;
38123;SDS011;23934;47.998;9.832;2022-12-07T05:55:40;1.92;;;1.77;;
38123;SDS011;23934;47.998;9.832;2022-12-07T05:58:06;0.00;;;0.00;;
38123;SDS011;23934;47.998;9.832;2022-12-07T06:00:51;0.00;;;0.00;;
38123;SDS011;23934;47.998;9.832;2022-12-07T06:03:17;0.10;;;0.10;;
38123;SDS011;23934;47.998;9.832;2022-12-07T06:05:43;0.00;;;0.00;;
38123;SDS011;23934;47.998;9.832;2022-12-07T06:08:09;0.00;;;0.00;;
38123;SDS011;23934;47.998;9.832;2022-12-07T06:10:35;0.00;;;0.00;;
38123;SDS011;23934;47.998;9.832;2022-12-07T06:13:01;0.00;;;0.00;;
38123;SDS011;23934;47.998;9.832;2022-12-07T06:15:27;0.00;;;0.00;;
38123;SDS011;23934;47.998;9.832;2022-12-07T06:17:53;0.15;;;0.15;;
38123;SDS011;23934;47.998;9.832;2022-12-07T06:20:19;0.20;;;0.20;;
38123;SDS011;23934;47.998;9.832;2022-12-07T06:22:45;0.00;;;0.00;;
38123;SDS011;23934;47.998;9.832;2022-12-07T06:25:11;0.00;;;0.00;;
38123;SDS011;23934;47.998;9.832;2022-12-07T06:27:36;0.00;;;0.00;;
38123;SDS011;23934;47.998;9.832;2022-12-07T06:30:03;0.00;;;0.00;;
38123;SDS011;23934;47.998;9.832;2022-12-07T06:32:32;0.38;;;0.35;;
38123;SDS011;23934;47.998;9.832;2022-12-07T06:34:58;0.95;;;0.95;;
38123;SDS011;23934;47.998;9.832;2022-12-07T06:37:24;0.00;;;0.00;;
38123;SDS011;23934;47.998;9.832;2022-12-07T06:39:49;0.00;;;0.00;;
38123;SDS011;23934;47.998;9.832;2022-12-07T06:42:15;0.08;;;0.08;;
38123;SDS011;23934;47.998;9.832;2022-12-07T06:44:41;5.05;;;2.58;;
38123;SDS011;23934;47.998;9.832;2022-12-07T06:47:07;0.00;;;0.00;;
38123;SDS011;23934;47.998;9.832;2022-12-07T06:49:34;0.38;;;0.38;;
38123;SDS011;23934;47.998;9.832;2022-12-07T06:52:00;0.00;;;0.00;;
38123;SDS011;23934;47.998;9.832;2022-12-07T06:54:26;1.02;;;0.85;;
38123;SDS011;23934;47.998;9.832;2022-12-07T06:56:55;0.03;;;0.03;;
38123;SDS011;23934;47.998;9.832;2022-12-07T06:59:21;2.08;;;1.88;;
38123;SDS011;23934;47.998;9.832;2022-12-07T07:01:47;1.20;;;1.15;;
38123;SDS011;23934;47.998;9.832;2022-12-07T07:04:12;10.65;;;6.07;;
38123;SDS011;23934;47.998;9.832;2022-12-07T07:06:38;4.68;;;1.83;;
38123;SDS011;23934;47.998;9.832;2022-12-07T07:09:04;0.47;;;0.47;;
38123;SDS011;23934;47.998;9.832;2022-12-07T07:11:30;0.00;;;0.00;;
38123;SDS011;23934;47.998;9.832;2022-12-07T07:13:56;0.60;;;0.60;;
38123;SDS011;23934;47.998;9.832;2022-12-07T07:16:26;0.38;;;0.38;;
38123;SDS011;23934;47.998;9.832;2022-12-07T07:18:52;0.60;;;0.47;;
38123;SDS011;23934;47.998;9.832;2022-12-07T07:21:18;0.30;;;0.30;;
38123;SDS011;23934;47.998;9.832;2022-12-07T07:23:44;0.03;;;0.03;;
38123;SDS011;23934;47.998;9.832;2022-12-07T07:26:10;0.38;;;0.38;;
38123;SDS011;23934;47.998;9.832;2022-12-07T07:28:36;0.00;;;0.00;;
38123;SDS011;23934;47.998;9.832;2022-12-07T07:31:02;0.00;;;0.00;;
38123;SDS011;23934;47.998;9.832;2022-12-07T07:33:28;0.10;;;0.10;;
38123;SDS011;23934;47.998;9.832;2022-12-07T07:35:54;0.90;;;0.85;;
38123;SDS011;23934;47.998;9.832;2022-12-07T07:38:20;0.10;;;0.10;;
38123;SDS011;23934;47.998;9.832;2022-12-07T07:40:46;0.22;;;0.22;;
38123;SDS011;23934;47.998;9.832;2022-12-07T07:43:12;6.15;;;4.53;;
38123;SDS011;23934;47.998;9.832;2022-12-07T07:45:38;5.88;;;4.07;;
38123;SDS011;23934;47.998;9.832;2022-12-07T07:48:04;6.75;;;5.75;;
38123;SDS011;23934;47.998;9.832;2022-12-07T07:50:30;15.68;;;13.23;;
38123;SDS011;23934;47.998;9.832;2022-12-07T07:52:56;1.27;;;1.27;;
38123;SDS011;23934;47.998;9.832;2022-12-07T07:55:22;13.88;;;5.22;;
38123;SDS011;23934;47.998;9.832;2022-12-07T07:57:48;37.45;;;18.30;;
38123;SDS011;23934;47.998;9.832;2022-12-07T08:00:14;4.93;;;4.47;;
38123;SDS011;23934;47.998;9.832;2022-12-07T08:02:41;0.32;;;0.32;;
38123;SDS011;23934;47.998;9.832;2022-12-07T08:05:11;4.13;;;3.75;;
38123;SDS011;23934;47.998;9.832;2022-12-07T08:07:37;0.52;;;0.52;;
38123;SDS011;23934;47.998;9.832;2022-12-07T08:10:03;1.38;;;1.27;;
38123;SDS011;23934;47.998;9.832;2022-12-07T08:12:29;8.30;;;4.90;;
38123;SDS011;23934;47.998;9.832;2022-12-07T08:14:55;1.95;;;1.65;;
38123;SDS011;23934;47.998;9.832;2022-12-07T08:17:21;0.10;;;0.10;;
38123;SDS011;23934;47.998;9.832;2022-12-07T08:19:47;3.75;;;1.10;;
38123;SDS011;23934;47.998;9.832;2022-12-07T08:22:13;0.00;;;0.00;;
38123;SDS011;23934;47.998;9.832;2022-12-07T08:24:39;10.35;;;3.78;;
38123;SDS011;23934;47.998;9.832;2022-12-07T08:27:05;0.13;;;0.13;;
38123;SDS011;23934;47.998;9.832;2022-12-07T08:29:31;0.10;;;0.10;;
38123;SDS011;23934;47.998;9.832;2022-12-07T08:31:57;0.00;;;0.00;;
38123;SDS011;23934;47.998;9.832;2022-12-07T08:34:25;0.00;;;0.00;;
38123;SDS011;23934;47.998;9.832;2022-12-07T08:36:51;0.80;;;0.80;;
38123;SDS011;23934;47.998;9.832;2022-12-07T08:39:17;2.08;;;1.55;;
38123;SDS011;23934;47.998;9.832;2022-12-07T08:41:43;0.88;;;0.88;;
38123;SDS011;23934;47.998;9.832;2022-12-07T08:44:09;0.75;;;0.75;;
38123;SDS011;23934;47.998;9.832;2022-12-07T08:46:36;11.15;;;1.65;;
38123;SDS011;23934;47.998;9.832;2022-12-07T08:51:35;1.17;;;1.00;;
38123;SDS011;23934;47.998;9.832;2022-12-07T08:54:03;0.35;;;0.32;;
38123;SDS011;23934;47.998;9.832;2022-12-07T08:56:29;0.00;;;0.00;;
38123;SDS011;23934;47.998;9.832;2022-12-07T08:58:55;2.63;;;1.35;;
38123;SDS011;23934;47.998;9.832;2022-12-07T09:01:22;0.00;;;0.00;;
38123;SDS011;23934;47.998;9.832;2022-12-07T09:03:48;0.00;;;0.00;;
38123;SDS011;23934;47.998;9.832;2022-12-07T09:06:14;0.00;;;0.00;;
38123;SDS011;23934;47.998;9.832;2022-12-07T09:08:42;0.00;;;0.00;;
38123;SDS011;23934;47.998;9.832;2022-12-07T09:11:09;0.00;;;0.00;;
38123;SDS011;23934;47.998;9.832;2022-12-07T09:13:35;13.15;;;1.95;;
38123;SDS011;23934;47.998;9.832;2022-12-07T09:16:01;1.20;;;1.10;;
38123;SDS011;23934;47.998;9.832;2022-12-07T09:18:27;0.80;;;0.80;;
38123;SDS011;23934;47.998;9.832;2022-12-07T09:20:53;0.22;;;0.22;;
38123;SDS011;23934;47.998;9.832;2022-12-07T09:23:19;0.20;;;0.20;;
38123;SDS011;23934;47.998;9.832;2022-12-07T09:25:45;0.65;;;0.65;;
38123;SDS011;23934;47.998;9.832;2022-12-07T09:28:11;0.00;;;0.00;;
38123;SDS011;23934;47.998;9.832;2022-12-07T09:30:37;5.55;;;1.38;;
38123;SDS011;23934;47.998;9.832;2022-12-07T09:33:03;0.80;;;0.75;;
38123;SDS011;23934;47.998;9.832;2022-12-07T09:35:29;0.35;;;0.35;;
38123;SDS011;23934;47.998;9.832;2022-12-07T09:37:55;1.85;;;0.55;;
38123;SDS011;23934;47.998;9.832;2022-12-07T09:40:21;0.00;;;0.00;;
38123;SDS011;23934;47.998;9.832;2022-12-07T09:42:48;0.17;;;0.15;;
38123;SDS011;23934;47.998;9.832;2022-12-07T09:45:17;0.00;;;0.00;;
38123;SDS011;23934;47.998;9.832;2022-12-07T09:47:44;0.68;;;0.68;;
38123;SDS011;23934;47.998;9.832;2022-12-07T09:50:15;0.08;;;0.08;;
38123;SDS011;23934;47.998;9.832;2022-12-07T09:52:43;0.00;;;0.00;;
38123;SDS011;23934;47.998;9.832;2022-12-07T09:55:11;0.00;;;0.00;;
38123;SDS011;23934;47.998;9.832;2022-12-07T09:57:38;0.03;;;0.03;;
38123;SDS011;23934;47.998;9.832;2022-12-07T10:00:06;0.90;;;0.90;;
38123;SDS011;23934;47.998;9.832;2022-12-07T10:02:34;0.00;;;0.00;;
38123;SDS011;23934;47.998;9.832;2022-12-07T10:05:01;0.00;;;0.00;;
38123;SDS011;23934;47.998;9.832;2022-12-07T10:07:29;0.00;;;0.00;;
38123;SDS011;23934;47.998;9.832;2022-12-07T10:09:55;0.00;;;0.00;;
38123;SDS011;23934;47.998;9.832;2022-12-07T10:12:21;0.30;;;0.30;;
38123;SDS011;23934;47.998;9.832;2022-12-07T10:14:59;0.30;;;0.30;;
38123;SDS011;23934;47.998;9.832;2022-12-07T10:22:37;0.00;;;0.00;;
38123;SDS011;23934;47.998;9.832;2022-12-07T10:25:18;0.45;;;0.45;;
38123;SDS011;23934;47.998;9.832;2022-12-07T10:27:44;0.63;;;0.57;;
38123;SDS011;23934;47.998;9.832;2022-12-07T10:30:22;0.10;;;0.10;;
38123;SDS011;23934;47.998;9.832;2022-12-07T10:32:48;0.20;;;0.20;;
38123;SDS011;23934;47.998;9.832;2022-12-07T10:37:43;0.80;;;0.80;;
38123;SDS011;23934;47.998;9.832;2022-12-07T10:40:52;0.22;;;0.22;;
38123;SDS011;23934;47.998;9.832;2022-12-07T10:43:00;0.00;;;0.00;;
38123;SDS011;23934;47.998;9.832;2022-12-07T10:45:26;0.28;;;0.28;;
38123;SDS011;23934;47.998;9.832;2022-12-07T10:50:47;0.00;;;0.00;;
38123;SDS011;23934;47.998;9.832;2022-12-07T11:03:24;0.50;;;0.50;;
38123;SDS011;23934;47.998;9.832;2022-12-07T11:05:55;4.75;;;1.02;;
38123;SDS011;23934;47.998;9.832;2022-12-07T11:08:34;12.75;;;4.18;;
38123;SDS011;23934;47.998;9.832;2022-12-07T11:11:18;1.02;;;0.90;;
38123;SDS011;23934;47.998;9.832;2022-12-07T11:13:52;0.00;;;0.00;;
38123;SDS011;23934;47.998;9.832;2022-12-07T11:16:22;0.70;;;0.70;;
38123;SDS011;23934;47.998;9.832;2022-12-07T11:21:20;0.60;;;0.60;;
38123;SDS011;23934;47.998;9.832;2022-12-07T11:31:38;3.25;;;1.95;;
38123;SDS011;23934;47.998;9.832;2022-12-07T11:34:14;0.70;;;0.70;;
38123;SDS011;23934;47.998;9.832;2022-12-07T11:36:46;0.00;;;0.00;;
38123;SDS011;23934;47.998;9.832;2022-12-07T11:41:39;0.20;;;0.20;;
38123;SDS011;23934;47.998;9.832;2022-12-07T11:49:12;0.43;;;0.43;;
38123;SDS011;23934;47.998;9.832;2022-12-07T11:51:39;0.00;;;0.00;;
38123;SDS011;23934;47.998;9.832;2022-12-07T11:54:23;0.25;;;0.25;;
38123;SDS011;23934;47.998;9.832;2022-12-07T11:56:51;0.00;;;0.00;;
38123;SDS011;23934;47.998;9.832;2022-12-07T11:59:24;0.75;;;0.75;;
38123;SDS011;23934;47.998;9.832;2022-12-07T12:01:56;4.35;;;3.95;;
38123;SDS011;23934;47.998;9.832;2022-12-07T12:06:49;0.00;;;0.00;;
38123;SDS011;23934;47.998;9.832;2022-12-07T12:09:21;0.10;;;0.10;;
38123;SDS011;23934;47.998;9.832;2022-12-07T12:21:46;0.52;;;0.52;;
38123;SDS011;23934;47.998;9.832;2022-12-07T12:24:23;0.00;;;0.00;;
38123;SDS011;23934;47.998;9.832;2022-12-07T12:26:52;0.00;;;0.00;;
38123;SDS011;23934;47.998;9.832;2022-12-07T12:29:21;0.00;;;0.00;;
38123;SDS011;23934;47.998;9.832;2022-12-07T12:31:48;0.70;;;0.70;;
38123;SDS011;23934;47.998;9.832;2022-12-07T12:42:47;0.10;;;0.10;;
38123;SDS011;23934;47.998;9.832;2022-12-07T12:45:18;0.05;;;0.05;;
38123;SDS011;23934;47.998;9.832;2022-12-07T12:50:18;0.00;;;0.00;;
38123;SDS011;23934;47.998;9.832;2022-12-07T12:52:49;0.00;;;0.00;;
38123;SDS011;23934;47.998;9.832;2022-12-07T12:55:17;4.47;;;0.73;;
38123;SDS011;23934;47.998;9.832;2022-12-07T12:57:46;2.25;;;2.15;;
38123;SDS011;23934;47.998;9.832;2022-12-07T13:00:15;0.00;;;0.00;;
38123;SDS011;23934;47.998;9.832;2022-12-07T13:03:00;0.47;;;0.40;;
38123;SDS011;23934;47.998;9.832;2022-12-07T13:05:27;0.10;;;0.10;;
38123;SDS011;23934;47.998;9.832;2022-12-07T13:08:03;0.00;;;0.00;;
38123;SDS011;23934;47.998;9.832;2022-12-07T13:28:32;0.47;;;0.47;;
38123;SDS011;23934;47.998;9.832;2022-12-07T13:31:01;0.38;;;0.38;;
38123;SDS011;23934;47.998;9.832;2022-12-07T13:33:29;0.43;;;0.43;;
38123;SDS011;23934;47.998;9.832;2022-12-07T13:35:56;0.55;;;0.28;;
38123;SDS011;23934;47.998;9.832;2022-12-07T13:38:31;0.15;;;0.15;;
38123;SDS011;23934;47.998;9.832;2022-12-07T13:41:17;0.45;;;0.45;;
38123;SDS011;23934;47.998;9.832;2022-12-07T13:43:48;0.15;;;0.15;;
38123;SDS011;23934;47.998;9.832;2022-12-07T13:46:15;3.72;;;1.48;;
38123;SDS011;23934;47.998;9.832;2022-12-07T13:48:48;0.10;;;0.10;;
38123;SDS011;23934;47.998;9.832;2022-12-07T13:53:47;0.00;;;0.00;;
38123;SDS011;23934;47.998;9.832;2022-12-07T13:56:13;0.43;;;0.22;;
38123;SDS011;23934;47.998;9.832;2022-12-07T13:58:40;0.10;;;0.10;;
38123;SDS011;23934;47.998;9.832;2022-12-07T14:01:07;0.35;;;0.35;;
38123;SDS011;23934;47.998;9.832;2022-12-07T14:03:33;0.13;;;0.13;;
38123;SDS011;23934;47.998;9.832;2022-12-07T14:06:05;1.58;;;1.02;;
38123;SDS011;23934;47.998;9.832;2022-12-07T14:08:31;0.00;;;0.00;;
38123;SDS011;23934;47.998;9.832;2022-12-07T14:10:57;0.00;;;0.00;;
38123;SDS011;23934;47.998;9.832;2022-12-07T14:23:36;0.80;;;0.80;;
38123;SDS011;23934;47.998;9.832;2022-12-07T14:26:07;0.10;;;0.10;;
38123;SDS011;23934;47.998;9.832;2022-12-07T14:28:35;0.25;;;0.25;;
38123;SDS011;23934;47.998;9.832;2022-12-07T14:31:02;0.13;;;0.13;;
38123;SDS011;23934;47.998;9.832;2022-12-07T14:33:28;0.00;;;0.00;;
38123;SDS011;23934;47.998;9.832;2022-12-07T14:35:54;0.20;;;0.20;;
38123;SDS011;23934;47.998;9.832;2022-12-07T14:38:22;0.00;;;0.00;;
38123;SDS011;23934;47.998;9.832;2022-12-07T14:40:49;0.00;;;0.00;;
38123;SDS011;23934;47.998;9.832;2022-12-07T14:43:16;0.75;;;0.35;;
38123;SDS011;23934;47.998;9.832;2022-12-07T14:45:42;0.43;;;0.32;;
38123;SDS011;23934;47.998;9.832;2022-12-07T14:48:13;0.00;;;0.00;;
38123;SDS011;23934;47.998;9.832;2022-12-07T14:50:44;9.95;;;3.30;;
38123;SDS011;23934;47.998;9.832;2022-12-07T14:53:20;0.80;;;0.75;;
38123;SDS011;23934;47.998;9.832;2022-12-07T14:55:48;0.43;;;0.32;;
38123;SDS011;23934;47.998;9.832;2022-12-07T14:58:14;0.40;;;0.40;;
38123;SDS011;23934;47.998;9.832;2022-12-07T15:00:40;0.43;;;0.43;;
38123;SDS011;23934;47.998;9.832;2022-12-07T15:03:06;2.25;;;2.13;;
38123;SDS011;23934;47.998;9.832;2022-12-07T15:05:32;0.00;;;0.00;;
38123;SDS011;23934;47.998;9.832;2022-12-07T15:07:58;0.00;;;0.00;;
38123;SDS011;23934;47.998;9.832;2022-12-07T15:10:26;0.00;;;0.00;;
38123;SDS011;23934;47.998;9.832;2022-12-07T15:12:57;0.00;;;0.00;;
38123;SDS011;23934;47.998;9.832;2022-12-07T15:15:41;2.83;;;1.95;;
38123;SDS011;23934;47.998;9.832;2022-12-07T15:18:07;0.28;;;0.28;;
38123;SDS011;23934;47.998;9.832;2022-12-07T15:20:33;0.25;;;0.25;;
38123;SDS011;23934;47.998;9.832;2022-12-07T15:22:59;0.15;;;0.15;;
38123;SDS011;23934;47.998;9.832;2022-12-07T15:25:25;0.00;;;0.00;;
38123;SDS011;23934;47.998;9.832;2022-12-07T15:27:51;0.00;;;0.00;;
38123;SDS011;23934;47.998;9.832;2022-12-07T15:30:17;5.25;;;4.22;;
38123;SDS011;23934;47.998;9.832;2022-12-07T15:32:43;0.00;;;0.00;;
38123;SDS011;23934;47.998;9.832;2022-12-07T15:35:09;0.32;;;0.32;;
38123;SDS011;23934;47.998;9.832;2022-12-07T15:37:35;0.85;;;0.85;;
38123;SDS011;23934;47.998;9.832;2022-12-07T15:40:01;0.70;;;0.70;;
38123;SDS011;23934;47.998;9.832;2022-12-07T15:42:27;0.93;;;0.93;;
38123;SDS011;23934;47.998;9.832;2022-12-07T15:44:53;0.00;;;0.00;;
38123;SDS011;23934;47.998;9.832;2022-12-07T15:47:31;0.10;;;0.10;;
38123;SDS011;23934;47.998;9.832;2022-12-07T15:49:57;0.00;;;0.00;;
38123;SDS011;23934;47.998;9.832;2022-12-07T15:52:23;0.85;;;0.85;;
38123;SDS011;23934;47.998;9.832;2022-12-07T15:54:49;2.63;;;0.70;;
38123;SDS011;23934;47.998;9.832;2022-12-07T15:57:15;1.35;;;1.23;;
38123;SDS011;23934;47.998;9.832;2022-12-07T15:59:41;0.35;;;0.35;;
38123;SDS011;23934;47.998;9.832;2022-12-07T16:02:08;2.65;;;1.92;;
38123;SDS011;23934;47.998;9.832;2022-12-07T16:04:35;0.68;;;0.68;;
38123;SDS011;23934;47.998;9.832;2022-12-07T16:07:01;0.35;;;0.35;;
38123;SDS011;23934;47.998;9.832;2022-12-07T16:09:27;0.88;;;0.88;;
38123;SDS011;23934;47.998;9.832;2022-12-07T16:11:53;1.45;;;0.80;;
38123;SDS011;23934;47.998;9.832;2022-12-07T16:14:19;0.00;;;0.00;;
38123;SDS011;23934;47.998;9.832;2022-12-07T16:16:45;0.70;;;0.70;;
38123;SDS011;23934;47.998;9.832;2022-12-07T16:19:11;0.10;;;0.10;;
38123;SDS011;23934;47.998;9.832;2022-12-07T16:21:37;0.80;;;0.80;;
38123;SDS011;23934;47.998;9.832;2022-12-07T16:24:03;0.40;;;0.40;;
38123;SDS011;23934;47.998;9.832;2022-12-07T16:26:30;0.28;;;0.28;;
38123;SDS011;23934;47.998;9.832;2022-12-07T16:28:56;0.55;;;0.55;;
38123;SDS011;23934;47.998;9.832;2022-12-07T16:31:23;0.00;;;0.00;;
38123;SDS011;23934;47.998;9.832;2022-12-07T16:33:49;0.08;;;0.08;;
38123;SDS011;23934;47.998;9.832;2022-12-07T16:36:16;0.43;;;0.43;;
38123;SDS011;23934;47.998;9.832;2022-12-07T16:38:43;0.00;;;0.00;;
38123;SDS011;23934;47.998;9.832;2022-12-07T16:41:09;1.08;;;1.02;;
38123;SDS011;23934;47.998;9.832;2022-12-07T16:43:35;4.55;;;3.72;;
38123;SDS011;23934;47.998;9.832;2022-12-07T16:46:02;0.00;;;0.00;;
38123;SDS011;23934;47.998;9.832;2022-12-07T16:48:28;0.00;;;0.00;;
38123;SDS011;23934;47.998;9.832;2022-12-07T16:50:54;0.00;;;0.00;;